sensor_id;sensor_type;location;lat;lon;timestamp;pressure;altitude;pressure_sealevel;temperature;humidity
39455;BME280;25155;41.890;23.446;2023-05-20T00:00:50;92219.44;;;11.81;66.18
39455;BME280;25155;41.890;23.446;2023-05-20T00:03:18;92216.84;;;11.76;66.49
39455;BME280;25155;41.890;23.446;2023-05-20T00:05:45;92216.59;;;11.72;65.87
39455;BME280;25155;41.890;23.446;2023-05-20T00:08:12;92206.66;;;11.69;65.93
39455;BME280;25155;41.890;23.446;2023-05-20T00:10:39;92210.56;;;11.67;65.81
39455;BME280;25155;41.890;23.446;2023-05-20T00:13:06;92219.47;;;11.66;66.06
39455;BME280;25155;41.890;23.446;2023-05-20T00:15:33;92221.81;;;11.62;66.20
39455;BME280;25155;41.890;23.446;2023-05-20T00:18:01;92219.72;;;11.59;66.07
39455;BME280;25155;41.890;23.446;2023-05-20T00:20:29;92214.25;;;11.55;66.14
39455;BME280;25155;41.890;23.446;2023-05-20T00:22:56;92214.50;;;11.54;65.99
39455;BME280;25155;41.890;23.446;2023-05-20T00:25:23;92208.72;;;11.52;66.11
39455;BME280;25155;41.890;23.446;2023-05-20T00:27:50;92213.44;;;11.50;65.88
39455;BME280;25155;41.890;23.446;2023-05-20T00:30:17;92211.09;;;11.48;65.69
39455;BME280;25155;41.890;23.446;2023-05-20T00:32:44;92211.59;;;11.45;65.69
39455;BME280;25155;41.890;23.446;2023-05-20T00:35:11;92205.88;;;11.43;65.50
39455;BME280;25155;41.890;23.446;2023-05-20T00:37:40;92202.22;;;11.44;65.72
39455;BME280;25155;41.890;23.446;2023-05-20T00:40:07;92205.88;;;11.43;65.61
39455;BME280;25155;41.890;23.446;2023-05-20T00:42:34;92205.34;;;11.41;65.46
39455;BME280;25155;41.890;23.446;2023-05-20T00:45:01;92201.16;;;11.40;65.27
39455;BME280;25155;41.890;23.446;2023-05-20T00:47:29;92214.22;;;11.19;67.24
39455;BME280;25155;41.890;23.446;2023-05-20T00:49:57;92207.34;;;10.82;67.94
39455;BME280;25155;41.890;23.446;2023-05-20T00:52:24;92206.22;;;10.58;69.36
39455;BME280;25155;41.890;23.446;2023-05-20T00:54:52;92209.34;;;10.55;69.16
39455;BME280;25155;41.890;23.446;2023-05-20T00:57:20;92213.78;;;10.59;69.04
39455;BME280;25155;41.890;23.446;2023-05-20T00:59:47;92210.16;;;10.65;68.60
39455;BME280;25155;41.890;23.446;2023-05-20T01:02:14;92212.25;;;10.68;68.16
39455;BME280;25155;41.890;23.446;2023-05-20T01:04:41;92200.53;;;10.71;67.98
39455;BME280;25155;41.890;23.446;2023-05-20T01:07:11;92197.41;;;10.74;67.72
39455;BME280;25155;41.890;23.446;2023-05-20T01:09:39;92193.50;;;10.77;67.63
39455;BME280;25155;41.890;23.446;2023-05-20T01:12:11;92194.53;;;10.76;67.15
39455;BME280;25155;41.890;23.446;2023-05-20T01:14:40;92188.53;;;10.75;67.03
39455;BME280;25155;41.890;23.446;2023-05-20T01:17:10;92186.16;;;10.68;68.52
39455;BME280;25155;41.890;23.446;2023-05-20T01:19:39;92190.56;;;10.58;68.56
39455;BME280;25155;41.890;23.446;2023-05-20T01:22:10;92186.91;;;10.53;68.17
39455;BME280;25155;41.890;23.446;2023-05-20T01:24:40;92186.13;;;10.53;68.15
39455;BME280;25155;41.890;23.446;2023-05-20T01:27:08;92192.63;;;10.50;68.34
39455;BME280;25155;41.890;23.446;2023-05-20T01:29:35;92191.56;;;10.46;68.42
39455;BME280;25155;41.890;23.446;2023-05-20T01:32:04;92186.88;;;10.43;68.73
39455;BME280;25155;41.890;23.446;2023-05-20T01:34:32;92183.16;;;10.34;68.48
39455;BME280;25155;41.890;23.446;2023-05-20T01:36:59;92185.25;;;10.32;68.29
39455;BME280;25155;41.890;23.446;2023-05-20T01:39:26;92175.81;;;10.31;68.26
39455;BME280;25155;41.890;23.446;2023-05-20T01:41:56;92173.78;;;10.33;67.87
39455;BME280;25155;41.890;23.446;2023-05-20T01:44:24;92185.00;;;10.33;67.69
39455;BME280;25155;41.890;23.446;2023-05-20T01:46:51;92183.63;;;10.31;67.75
39455;BME280;25155;41.890;23.446;2023-05-20T01:49:18;92182.88;;;10.30;67.96
39455;BME280;25155;41.890;23.446;2023-05-20T01:51:45;92182.88;;;10.30;67.58
39455;BME280;25155;41.890;23.446;2023-05-20T01:54:12;92184.94;;;10.28;67.40
39455;BME280;25155;41.890;23.446;2023-05-20T01:56:39;92181.81;;;10.26;67.25
39455;BME280;25155;41.890;23.446;2023-05-20T01:59:07;92183.84;;;10.19;68.70
39455;BME280;25155;41.890;23.446;2023-05-20T02:01:34;92177.31;;;10.11;68.85
39455;BME280;25155;41.890;23.446;2023-05-20T02:04:01;92173.63;;;10.07;68.82
39455;BME280;25155;41.890;23.446;2023-05-20T02:06:28;92173.84;;;9.95;69.63
39455;BME280;25155;41.890;23.446;2023-05-20T02:08:55;92168.28;;;9.76;69.27
39455;BME280;25155;41.890;23.446;2023-05-20T02:11:22;92167.97;;;9.73;69.47
39455;BME280;25155;41.890;23.446;2023-05-20T02:13:49;92167.97;;;9.73;69.47
39455;BME280;25155;41.890;23.446;2023-05-20T02:16:18;92162.25;;;9.76;69.16
39455;BME280;25155;41.890;23.446;2023-05-20T02:18:45;92162.00;;;9.77;69.03
39455;BME280;25155;41.890;23.446;2023-05-20T02:21:12;92166.97;;;9.79;68.87
39455;BME280;25155;41.890;23.446;2023-05-20T02:23:39;92167.75;;;9.79;68.67
39455;BME280;25155;41.890;23.446;2023-05-20T02:26:06;92172.19;;;9.79;68.79
39455;BME280;25155;41.890;23.446;2023-05-20T02:28:34;92162.53;;;9.79;68.68
39455;BME280;25155;41.890;23.446;2023-05-20T02:31:04;92158.09;;;9.75;69.71
39455;BME280;25155;41.890;23.446;2023-05-20T02:33:33;92164.06;;;9.70;69.36
39455;BME280;25155;41.890;23.446;2023-05-20T02:35:59;92160.94;;;9.68;69.23
39455;BME280;25155;41.890;23.446;2023-05-20T02:38:26;92155.16;;;9.66;69.31
39455;BME280;25155;41.890;23.446;2023-05-20T02:40:54;92155.97;;;9.67;69.09
39455;BME280;25155;41.890;23.446;2023-05-20T02:43:23;92163.78;;;9.67;68.48
39455;BME280;25155;41.890;23.446;2023-05-20T02:45:50;92164.03;;;9.65;68.53
39455;BME280;25155;41.890;23.446;2023-05-20T02:48:16;92162.44;;;9.64;68.52
39455;BME280;25155;41.890;23.446;2023-05-20T02:50:45;92160.09;;;9.63;68.38
39455;BME280;25155;41.890;23.446;2023-05-20T02:53:12;92167.63;;;9.59;69.37
39455;BME280;25155;41.890;23.446;2023-05-20T02:55:39;92167.59;;;9.54;69.39
39455;BME280;25155;41.890;23.446;2023-05-20T02:58:06;92174.31;;;9.50;69.71
39455;BME280;25155;41.890;23.446;2023-05-20T03:00:33;92183.72;;;9.51;69.58
39455;BME280;25155;41.890;23.446;2023-05-20T03:03:04;92181.59;;;9.48;69.40
39455;BME280;25155;41.890;23.446;2023-05-20T03:05:32;92184.66;;;9.39;69.55
39455;BME280;25155;41.890;23.446;2023-05-20T03:08:05;92194.03;;;9.35;69.47
39455;BME280;25155;41.890;23.446;2023-05-20T03:10:33;92193.47;;;9.33;69.35
39455;BME280;25155;41.890;23.446;2023-05-20T03:13:00;92197.06;;;9.27;69.19
39455;BME280;25155;41.890;23.446;2023-05-20T03:15:28;92197.78;;;9.17;69.67
39455;BME280;25155;41.890;23.446;2023-05-20T03:17:54;92204.72;;;9.12;69.34
39455;BME280;25155;41.890;23.446;2023-05-20T03:20:21;92209.16;;;9.11;69.26
39455;BME280;25155;41.890;23.446;2023-05-20T03:22:50;92203.19;;;9.11;69.39
39455;BME280;25155;41.890;23.446;2023-05-20T03:25:18;92212.72;;;9.05;70.37
39455;BME280;25155;41.890;23.446;2023-05-20T03:27:45;92204.63;;;9.01;70.13
39455;BME280;25155;41.890;23.446;2023-05-20T03:30:12;92203.56;;;8.97;70.24
39455;BME280;25155;41.890;23.446;2023-05-20T03:32:39;92209.78;;;8.96;70.32
39455;BME280;25155;41.890;23.446;2023-05-20T03:35:06;92211.38;;;8.97;70.05
39455;BME280;25155;41.890;23.446;2023-05-20T03:37:34;92216.78;;;8.91;70.87
39455;BME280;25155;41.890;23.446;2023-05-20T03:40:01;92220.63;;;8.88;70.90
39455;BME280;25155;41.890;23.446;2023-05-20T03:42:32;92220.41;;;8.90;70.63
39455;BME280;25155;41.890;23.446;2023-05-20T03:44:59;92215.97;;;8.90;70.43
39455;BME280;25155;41.890;23.446;2023-05-20T03:47:26;92216.53;;;8.92;70.28
39455;BME280;25155;41.890;23.446;2023-05-20T03:49:52;92215.47;;;8.93;70.16
39455;BME280;25155;41.890;23.446;2023-05-20T03:52:19;92209.78;;;8.96;70.06
39455;BME280;25155;41.890;23.446;2023-05-20T03:54:46;92208.78;;;8.97;70.12
39455;BME280;25155;41.890;23.446;2023-05-20T03:57:13;92209.31;;;8.99;69.95
39455;BME280;25155;41.890;23.446;2023-05-20T03:59:42;92209.06;;;9.01;69.89
39455;BME280;25155;41.890;23.446;2023-05-20T04:02:09;92206.22;;;9.02;69.89
39455;BME280;25155;41.890;23.446;2023-05-20T04:04:36;92211.97;;;9.04;70.01
39455;BME280;25155;41.890;23.446;2023-05-20T04:07:03;92200.81;;;9.09;70.37
39455;BME280;25155;41.890;23.446;2023-05-20T04:09:32;92209.66;;;9.08;71.63
39455;BME280;25155;41.890;23.446;2023-05-20T04:11:59;92208.88;;;9.08;71.69
39455;BME280;25155;41.890;23.446;2023-05-20T04:14:26;92212.00;;;9.10;71.67
39455;BME280;25155;41.890;23.446;2023-05-20T04:16:54;92217.75;;;9.12;71.85
39455;BME280;25155;41.890;23.446;2023-05-20T04:19:21;92231.56;;;9.12;72.71
39455;BME280;25155;41.890;23.446;2023-05-20T04:21:52;92224.03;;;9.16;72.17
39455;BME280;25155;41.890;23.446;2023-05-20T04:24:20;92213.91;;;9.19;72.22
39455;BME280;25155;41.890;23.446;2023-05-20T04:26:49;92225.16;;;9.25;71.91
39455;BME280;25155;41.890;23.446;2023-05-20T04:29:16;92218.97;;;9.31;71.65
39455;BME280;25155;41.890;23.446;2023-05-20T04:31:43;92218.22;;;9.36;71.68
39455;BME280;25155;41.890;23.446;2023-05-20T04:34:12;92219.03;;;9.41;71.70
39455;BME280;25155;41.890;23.446;2023-05-20T04:36:39;92222.72;;;9.46;71.50
39455;BME280;25155;41.890;23.446;2023-05-20T04:39:05;92227.19;;;9.50;71.54
39455;BME280;25155;41.890;23.446;2023-05-20T04:41:33;92223.53;;;9.51;72.15
39455;BME280;25155;41.890;23.446;2023-05-20T04:44:00;92222.28;;;9.54;72.56
39455;BME280;25155;41.890;23.446;2023-05-20T04:46:28;92216.28;;;9.53;73.95
39455;BME280;25155;41.890;23.446;2023-05-20T04:48:56;92225.41;;;9.56;74.05
39455;BME280;25155;41.890;23.446;2023-05-20T04:51:24;92223.09;;;9.59;74.18
39455;BME280;25155;41.890;23.446;2023-05-20T04:53:51;92217.13;;;9.64;74.44
39455;BME280;25155;41.890;23.446;2023-05-20T04:56:18;92214.56;;;9.69;74.65
39455;BME280;25155;41.890;23.446;2023-05-20T04:58:45;92216.19;;;9.75;75.01
39455;BME280;25155;41.890;23.446;2023-05-20T05:01:11;92215.44;;;9.80;75.28
39455;BME280;25155;41.890;23.446;2023-05-20T05:03:38;92215.22;;;9.87;75.67
39455;BME280;25155;41.890;23.446;2023-05-20T05:06:05;92219.41;;;9.93;76.04
39455;BME280;25155;41.890;23.446;2023-05-20T05:08:33;92211.13;;;10.01;75.73
39455;BME280;25155;41.890;23.446;2023-05-20T05:11:01;92210.91;;;10.08;76.29
39455;BME280;25155;41.890;23.446;2023-05-20T05:13:27;92215.09;;;10.14;76.32
39455;BME280;25155;41.890;23.446;2023-05-20T05:15:58;92218.00;;;10.23;76.53
39455;BME280;25155;41.890;23.446;2023-05-20T05:18:24;92212.84;;;10.28;76.85
39455;BME280;25155;41.890;23.446;2023-05-20T05:20:57;92211.31;;;10.32;76.43
39455;BME280;25155;41.890;23.446;2023-05-20T05:23:24;92209.50;;;10.38;77.25
39455;BME280;25155;41.890;23.446;2023-05-20T05:25:53;92198.88;;;10.44;77.83
39455;BME280;25155;41.890;23.446;2023-05-20T05:28:20;92181.66;;;10.48;78.43
39455;BME280;25155;41.890;23.446;2023-05-20T05:30:47;92181.91;;;10.47;78.71
39455;BME280;25155;41.890;23.446;2023-05-20T05:33:13;92186.34;;;10.46;79.32
39455;BME280;25155;41.890;23.446;2023-05-20T05:35:41;92190.56;;;10.52;78.95
39455;BME280;25155;41.890;23.446;2023-05-20T05:38:08;92191.09;;;10.60;78.99
39455;BME280;25155;41.890;23.446;2023-05-20T05:40:34;92192.44;;;10.67;78.92
39455;BME280;25155;41.890;23.446;2023-05-20T05:43:03;92187.75;;;10.75;79.00
39455;BME280;25155;41.890;23.446;2023-05-20T05:45:30;92187.00;;;10.79;78.25
39455;BME280;25155;41.890;23.446;2023-05-20T05:47:57;92196.13;;;10.87;78.07
39455;BME280;25155;41.890;23.446;2023-05-20T05:50:24;92195.88;;;10.99;77.64
39455;BME280;25155;41.890;23.446;2023-05-20T05:52:51;92192.00;;;11.12;77.93
39455;BME280;25155;41.890;23.446;2023-05-20T05:55:18;92176.06;;;11.18;77.09
39455;BME280;25155;41.890;23.446;2023-05-20T05:57:45;92172.69;;;11.23;76.20
39455;BME280;25155;41.890;23.446;2023-05-20T06:00:13;92178.72;;;11.34;76.06
39455;BME280;25155;41.890;23.446;2023-05-20T06:02:40;92171.91;;;11.48;76.11
39455;BME280;25155;41.890;23.446;2023-05-20T06:05:07;92177.41;;;11.62;75.59
39455;BME280;25155;41.890;23.446;2023-05-20T06:07:35;92176.31;;;11.73;75.79
39455;BME280;25155;41.890;23.446;2023-05-20T06:10:02;92177.09;;;11.84;75.24
39455;BME280;25155;41.890;23.446;2023-05-20T06:12:29;92173.47;;;11.95;74.27
39455;BME280;25155;41.890;23.446;2023-05-20T06:14:56;92178.66;;;12.06;74.36
39455;BME280;25155;41.890;23.446;2023-05-20T06:17:25;92177.09;;;12.15;74.53
39455;BME280;25155;41.890;23.446;2023-05-20T06:19:51;92173.91;;;12.28;75.29
39455;BME280;25155;41.890;23.446;2023-05-20T06:22:18;92161.28;;;12.41;74.51
39455;BME280;25155;41.890;23.446;2023-05-20T06:24:45;92160.50;;;12.45;71.88
39455;BME280;25155;41.890;23.446;2023-05-20T06:27:12;92178.28;;;12.48;72.61
39455;BME280;25155;41.890;23.446;2023-05-20T06:29:39;92172.22;;;12.58;72.82
39455;BME280;25155;41.890;23.446;2023-05-20T06:32:06;92169.56;;;12.68;72.72
39455;BME280;25155;41.890;23.446;2023-05-20T06:34:34;92167.66;;;12.84;73.40
39455;BME280;25155;41.890;23.446;2023-05-20T06:37:01;92160.25;;;12.97;72.63
39455;BME280;25155;41.890;23.446;2023-05-20T06:39:29;92158.91;;;13.04;71.00
39455;BME280;25155;41.890;23.446;2023-05-20T06:41:55;92158.31;;;13.13;71.34
39455;BME280;25155;41.890;23.446;2023-05-20T06:44:22;92165.59;;;13.21;69.67
39455;BME280;25155;41.890;23.446;2023-05-20T06:46:49;92153.75;;;13.28;69.78
39455;BME280;25155;41.890;23.446;2023-05-20T06:49:16;92154.50;;;13.39;68.67
39455;BME280;25155;41.890;23.446;2023-05-20T06:51:44;92142.66;;;13.42;68.42
39455;BME280;25155;41.890;23.446;2023-05-20T06:54:11;92142.63;;;13.47;68.66
39455;BME280;25155;41.890;23.446;2023-05-20T06:56:38;92142.56;;;13.57;68.82
39455;BME280;25155;41.890;23.446;2023-05-20T06:59:05;92144.31;;;13.62;67.66
39455;BME280;25155;41.890;23.446;2023-05-20T07:01:32;92144.00;;;13.69;66.49
39455;BME280;25155;41.890;23.446;2023-05-20T07:03:59;92137.13;;;13.78;66.59
39455;BME280;25155;41.890;23.446;2023-05-20T07:06:26;92144.59;;;13.90;66.90
39455;BME280;25155;41.890;23.446;2023-05-20T07:08:56;92138.69;;;14.03;66.72
39455;BME280;25155;41.890;23.446;2023-05-20T07:11:23;92136.44;;;14.20;67.35
39455;BME280;25155;41.890;23.446;2023-05-20T07:13:51;92133.91;;;14.34;65.35
39455;BME280;25155;41.890;23.446;2023-05-20T07:16:18;92125.13;;;14.44;64.37
39455;BME280;25155;41.890;23.446;2023-05-20T07:18:45;92125.53;;;14.56;64.65
39455;BME280;25155;41.890;23.446;2023-05-20T07:21:12;92121.72;;;14.68;64.15
39455;BME280;25155;41.890;23.446;2023-05-20T07:23:39;92123.94;;;14.80;63.60
39455;BME280;25155;41.890;23.446;2023-05-20T07:26:07;92114.06;;;14.90;63.29
39455;BME280;25155;41.890;23.446;2023-05-20T07:28:34;92104.97;;;15.02;64.40
39455;BME280;25155;41.890;23.446;2023-05-20T07:31:01;92106.78;;;15.20;65.73
39455;BME280;25155;41.890;23.446;2023-05-20T07:33:27;92105.00;;;15.35;64.48
39455;BME280;25155;41.890;23.446;2023-05-20T07:35:55;92105.53;;;15.50;66.03
39455;BME280;25155;41.890;23.446;2023-05-20T07:38:22;92106.63;;;15.63;64.64
39455;BME280;25155;41.890;23.446;2023-05-20T07:40:49;92106.16;;;15.75;63.09
39455;BME280;25155;41.890;23.446;2023-05-20T07:43:18;92100.78;;;15.85;62.55
39455;BME280;25155;41.890;23.446;2023-05-20T07:45:45;92098.44;;;15.98;61.86
39455;BME280;25155;41.890;23.446;2023-05-20T07:48:12;92093.16;;;16.12;62.32
39455;BME280;25155;41.890;23.446;2023-05-20T07:50:39;92094.63;;;16.32;63.03
39455;BME280;25155;41.890;23.446;2023-05-20T07:53:06;92085.63;;;16.47;60.65
39455;BME280;25155;41.890;23.446;2023-05-20T07:55:33;92090.44;;;16.58;55.92
39455;BME280;25155;41.890;23.446;2023-05-20T07:58:01;92084.47;;;16.67;54.16
39455;BME280;25155;41.890;23.446;2023-05-20T08:00:29;92088.72;;;16.76;53.58
39455;BME280;25155;41.890;23.446;2023-05-20T08:02:56;92082.19;;;16.88;53.10
39455;BME280;25155;41.890;23.446;2023-05-20T08:05:23;92072.69;;;17.01;51.75
39455;BME280;25155;41.890;23.446;2023-05-20T08:07:50;92063.75;;;17.10;49.69
39455;BME280;25155;41.890;23.446;2023-05-20T08:10:17;92056.09;;;17.23;50.60
39455;BME280;25155;41.890;23.446;2023-05-20T08:12:45;92050.59;;;17.33;52.31
39455;BME280;25155;41.890;23.446;2023-05-20T08:15:12;92050.06;;;17.53;52.85
39455;BME280;25155;41.890;23.446;2023-05-20T08:17:40;92048.75;;;17.65;50.72
39455;BME280;25155;41.890;23.446;2023-05-20T08:20:08;92039.78;;;17.75;48.88
39455;BME280;25155;41.890;23.446;2023-05-20T08:22:37;92032.97;;;17.82;48.01
39455;BME280;25155;41.890;23.446;2023-05-20T08:25:06;92037.06;;;17.88;48.82
39455;BME280;25155;41.890;23.446;2023-05-20T08:27:34;92032.59;;;17.89;46.04
39455;BME280;25155;41.890;23.446;2023-05-20T08:30:01;92034.59;;;17.92;47.66
39455;BME280;25155;41.890;23.446;2023-05-20T08:32:27;92035.25;;;17.98;45.64
39455;BME280;25155;41.890;23.446;2023-05-20T08:34:56;92031.56;;;18.07;47.18
39455;BME280;25155;41.890;23.446;2023-05-20T08:37:26;92032.50;;;18.20;48.03
39455;BME280;25155;41.890;23.446;2023-05-20T08:39:53;92042.94;;;18.25;47.58
39455;BME280;25155;41.890;23.446;2023-05-20T08:42:24;92034.88;;;18.31;46.41
39455;BME280;25155;41.890;23.446;2023-05-20T08:44:51;92037.09;;;18.46;45.45
39455;BME280;25155;41.890;23.446;2023-05-20T08:47:19;92036.94;;;18.60;42.38
39455;BME280;25155;41.890;23.446;2023-05-20T08:49:47;92029.97;;;18.64;42.48
39455;BME280;25155;41.890;23.446;2023-05-20T08:52:17;92033.06;;;18.66;43.80
39455;BME280;25155;41.890;23.446;2023-05-20T08:54:47;92026.41;;;18.77;43.67
39455;BME280;25155;41.890;23.446;2023-05-20T08:57:14;92030.00;;;18.90;44.09
39455;BME280;25155;41.890;23.446;2023-05-20T08:59:42;92025.03;;;18.97;45.67
39455;BME280;25155;41.890;23.446;2023-05-20T09:02:09;92022.50;;;19.10;44.03
39455;BME280;25155;41.890;23.446;2023-05-20T09:04:36;92020.94;;;19.26;44.40
39455;BME280;25155;41.890;23.446;2023-05-20T09:07:06;92023.09;;;19.42;41.51
39455;BME280;25155;41.890;23.446;2023-05-20T09:09:35;92023.53;;;19.52;44.02
39455;BME280;25155;41.890;23.446;2023-05-20T09:12:02;92011.47;;;19.72;45.60
39455;BME280;25155;41.890;23.446;2023-05-20T09:14:29;92006.56;;;20.01;46.29
39455;BME280;25155;41.890;23.446;2023-05-20T09:16:56;92016.44;;;20.21;44.45
39455;BME280;25155;41.890;23.446;2023-05-20T09:19:23;92011.75;;;20.27;43.08
39455;BME280;25155;41.890;23.446;2023-05-20T09:21:51;92008.88;;;20.41;45.54
39455;BME280;25155;41.890;23.446;2023-05-20T09:24:21;92016.25;;;20.56;41.03
39455;BME280;25155;41.890;23.446;2023-05-20T09:26:50;92012.22;;;20.50;39.93
39455;BME280;25155;41.890;23.446;2023-05-20T09:29:17;92013.53;;;20.44;41.89
39455;BME280;25155;41.890;23.446;2023-05-20T09:31:46;92011.00;;;20.48;42.63
39455;BME280;25155;41.890;23.446;2023-05-20T09:34:13;92016.13;;;20.53;41.74
39455;BME280;25155;41.890;23.446;2023-05-20T09:36:40;92011.72;;;20.57;42.86
39455;BME280;25155;41.890;23.446;2023-05-20T09:39:09;92011.06;;;20.60;43.08
39455;BME280;25155;41.890;23.446;2023-05-20T09:41:43;92016.38;;;20.60;42.81
39455;BME280;25155;41.890;23.446;2023-05-20T09:44:13;92009.53;;;20.59;43.20
39455;BME280;25155;41.890;23.446;2023-05-20T09:46:41;92006.88;;;20.59;43.22
39455;BME280;25155;41.890;23.446;2023-05-20T09:49:09;92008.81;;;20.50;41.87
39455;BME280;25155;41.890;23.446;2023-05-20T09:51:37;91995.13;;;20.48;41.60
39455;BME280;25155;41.890;23.446;2023-05-20T09:54:06;91989.09;;;20.38;40.95
39455;BME280;25155;41.890;23.446;2023-05-20T09:56:35;91987.91;;;20.27;40.48
39455;BME280;25155;41.890;23.446;2023-05-20T09:59:02;91988.69;;;20.27;43.46
39455;BME280;25155;41.890;23.446;2023-05-20T10:01:32;91982.41;;;20.32;43.30
39455;BME280;25155;41.890;23.446;2023-05-20T10:03:59;91990.34;;;20.41;42.49
39455;BME280;25155;41.890;23.446;2023-05-20T10:06:35;91988.56;;;20.45;42.66
39455;BME280;25155;41.890;23.446;2023-05-20T10:09:19;91987.81;;;20.44;43.04
39455;BME280;25155;41.890;23.446;2023-05-20T10:11:52;91978.59;;;20.51;42.70
39455;BME280;25155;41.890;23.446;2023-05-20T10:14:31;91963.69;;;20.58;45.19
39455;BME280;25155;41.890;23.446;2023-05-20T10:17:02;91963.38;;;20.60;41.96
39455;BME280;25155;41.890;23.446;2023-05-20T10:19:34;91958.72;;;20.57;40.51
39455;BME280;25155;41.890;23.446;2023-05-20T10:22:02;91949.56;;;20.54;41.25
39455;BME280;25155;41.890;23.446;2023-05-20T10:24:29;91937.84;;;20.55;41.40
39455;BME280;25155;41.890;23.446;2023-05-20T10:26:57;91938.44;;;20.61;39.77
39455;BME280;25155;41.890;23.446;2023-05-20T10:29:25;91932.78;;;20.71;40.35
39455;BME280;25155;41.890;23.446;2023-05-20T10:31:52;91931.38;;;20.74;40.69
39455;BME280;25155;41.890;23.446;2023-05-20T10:34:21;91921.41;;;20.71;41.21
39455;BME280;25155;41.890;23.446;2023-05-20T10:36:56;91923.84;;;20.55;40.60
39455;BME280;25155;41.890;23.446;2023-05-20T10:39:24;91929.84;;;20.43;41.80
39455;BME280;25155;41.890;23.446;2023-05-20T10:41:51;91938.75;;;20.38;41.42
39455;BME280;25155;41.890;23.446;2023-05-20T10:44:18;91943.88;;;20.43;42.52
39455;BME280;25155;41.890;23.446;2023-05-20T10:46:45;91933.03;;;20.57;41.34
39455;BME280;25155;41.890;23.446;2023-05-20T10:49:16;91927.53;;;20.62;41.66
39455;BME280;25155;41.890;23.446;2023-05-20T10:51:46;91928.75;;;20.65;41.14
39455;BME280;25155;41.890;23.446;2023-05-20T10:54:13;91934.53;;;20.67;41.34
39455;BME280;25155;41.890;23.446;2023-05-20T10:56:49;91936.84;;;20.69;40.94
39455;BME280;25155;41.890;23.446;2023-05-20T10:59:16;91935.41;;;20.71;41.64
39455;BME280;25155;41.890;23.446;2023-05-20T11:01:44;91937.09;;;20.76;41.11
39455;BME280;25155;41.890;23.446;2023-05-20T11:04:12;91932.69;;;20.80;41.14
39455;BME280;25155;41.890;23.446;2023-05-20T11:06:48;91928.31;;;20.84;42.34
39455;BME280;25155;41.890;23.446;2023-05-20T11:09:17;91928.22;;;20.93;42.13
39455;BME280;25155;41.890;23.446;2023-05-20T11:11:44;91925.03;;;20.99;42.62
39455;BME280;25155;41.890;23.446;2023-05-20T11:14:10;91923.72;;;21.06;42.59
39455;BME280;25155;41.890;23.446;2023-05-20T11:16:39;91921.19;;;21.09;41.02
39455;BME280;25155;41.890;23.446;2023-05-20T11:19:06;91931.16;;;21.12;42.59
39455;BME280;25155;41.890;23.446;2023-05-20T11:21:33;91935.59;;;21.20;42.33
39455;BME280;25155;41.890;23.446;2023-05-20T11:24:00;91939.13;;;21.25;41.40
39455;BME280;25155;41.890;23.446;2023-05-20T11:26:29;91933.81;;;21.25;42.06
39455;BME280;25155;41.890;23.446;2023-05-20T11:28:57;91938.03;;;21.26;41.05
39455;BME280;25155;41.890;23.446;2023-05-20T11:31:24;91940.47;;;21.18;41.00
39455;BME280;25155;41.890;23.446;2023-05-20T11:33:51;91951.50;;;21.20;41.42
39455;BME280;25155;41.890;23.446;2023-05-20T11:36:18;91941.09;;;21.15;40.77
39455;BME280;25155;41.890;23.446;2023-05-20T11:38:46;91948.69;;;21.05;40.61
39455;BME280;25155;41.890;23.446;2023-05-20T11:41:13;91945.53;;;20.90;40.48
39455;BME280;25155;41.890;23.446;2023-05-20T11:43:41;91951.13;;;20.76;40.37
39455;BME280;25155;41.890;23.446;2023-05-20T11:46:08;91955.59;;;20.63;40.20
39455;BME280;25155;41.890;23.446;2023-05-20T11:48:35;91954.06;;;20.54;40.00
39455;BME280;25155;41.890;23.446;2023-05-20T11:51:02;91964.81;;;20.36;40.33
39455;BME280;25155;41.890;23.446;2023-05-20T11:53:29;91961.81;;;20.17;40.12
39455;BME280;25155;41.890;23.446;2023-05-20T11:55:56;91966.84;;;20.09;40.86
39455;BME280;25155;41.890;23.446;2023-05-20T11:58:24;91969.50;;;20.01;40.72
39455;BME280;25155;41.890;23.446;2023-05-20T12:00:52;91970.94;;;19.98;40.81
39455;BME280;25155;41.890;23.446;2023-05-20T12:03:19;91973.31;;;19.91;40.29
39455;BME280;25155;41.890;23.446;2023-05-20T12:05:46;91959.66;;;19.80;40.19
39455;BME280;25155;41.890;23.446;2023-05-20T12:08:13;91963.41;;;19.70;40.51
39455;BME280;25155;41.890;23.446;2023-05-20T12:10:40;91962.50;;;19.66;40.97
39455;BME280;25155;41.890;23.446;2023-05-20T12:13:09;91966.09;;;19.62;41.26
39455;BME280;25155;41.890;23.446;2023-05-20T12:15:37;91963.31;;;19.58;41.38
39455;BME280;25155;41.890;23.446;2023-05-20T12:18:06;91960.53;;;19.54;41.99
39455;BME280;25155;41.890;23.446;2023-05-20T12:20:33;91956.50;;;19.48;41.43
39455;BME280;25155;41.890;23.446;2023-05-20T12:23:01;91958.34;;;19.48;42.12
39455;BME280;25155;41.890;23.446;2023-05-20T12:25:28;91955.38;;;19.49;42.51
39455;BME280;25155;41.890;23.446;2023-05-20T12:27:55;91947.13;;;19.51;42.95
39455;BME280;25155;41.890;23.446;2023-05-20T12:30:22;91942.78;;;19.55;43.03
39455;BME280;25155;41.890;23.446;2023-05-20T12:32:49;91940.59;;;19.57;43.05
39455;BME280;25155;41.890;23.446;2023-05-20T12:35:23;91932.34;;;19.59;43.25
39455;BME280;25155;41.890;23.446;2023-05-20T12:37:50;91928.75;;;19.63;43.84
39455;BME280;25155;41.890;23.446;2023-05-20T12:40:16;91928.09;;;19.66;43.30
39455;BME280;25155;41.890;23.446;2023-05-20T12:42:43;91928.09;;;19.66;43.57
39455;BME280;25155;41.890;23.446;2023-05-20T12:45:10;91925.91;;;19.68;44.21
39455;BME280;25155;41.890;23.446;2023-05-20T12:47:37;91929.31;;;19.78;44.21
39455;BME280;25155;41.890;23.446;2023-05-20T12:50:04;91919.00;;;19.85;43.76
39455;BME280;25155;41.890;23.446;2023-05-20T12:52:33;91916.94;;;19.90;44.08
39455;BME280;25155;41.890;23.446;2023-05-20T12:55:00;91916.75;;;19.96;44.13